createdAt,value
2023-01-20T00:00:01.019Z,0.4
2023-01-20T00:03:01.067Z,0.4
2023-01-20T00:06:01.059Z,0.4
2023-01-20T00:09:00.939Z,0.4
2023-01-20T00:12:01.008Z,0.4
2023-01-20T00:15:00.935Z,0.4
2023-01-20T00:18:00.952Z,0.4
2023-01-20T00:21:00.987Z,0.4
2023-01-20T00:24:00.947Z,0.4
2023-01-20T00:27:00.933Z,0.3
2023-01-20T00:30:00.972Z,0.3
2023-01-20T00:33:00.955Z,0.3
2023-01-20T00:36:01.132Z,0.3
2023-01-20T00:39:00.958Z,0.3
2023-01-20T00:42:00.955Z,0.3
2023-01-20T00:45:00.998Z,0.3
2023-01-20T00:48:00.962Z,0.2
2023-01-20T00:51:00.981Z,0.2
2023-01-20T00:54:00.912Z,0.2
2023-01-20T00:57:01.007Z,0.2
2023-01-20T01:00:01.060Z,0.2
2023-01-20T01:03:00.992Z,0.2
2023-01-20T01:06:00.941Z,0.2
2023-01-20T01:09:01.019Z,0.2
2023-01-20T01:12:00.936Z,0.2
2023-01-20T01:15:01.029Z,0.2
2023-01-20T01:18:00.934Z,0.2
2023-01-20T01:21:01.017Z,0.2
2023-01-20T01:24:00.954Z,0.2
2023-01-20T01:27:00.941Z,0.2
2023-01-20T01:30:01.007Z,0.2
2023-01-20T01:33:00.979Z,0.2
2023-01-20T01:36:00.945Z,0.2
2023-01-20T01:39:00.936Z,0.2
2023-01-20T01:42:00.966Z,0.2
2023-01-20T01:45:00.953Z,0.2
2023-01-20T01:48:00.982Z,0.2
2023-01-20T01:51:00.988Z,0.2
2023-01-20T01:54:00.954Z,0.2
2023-01-20T01:57:01.004Z,0.2
2023-01-20T02:00:00.943Z,0.2
2023-01-20T02:03:00.957Z,0.2
2023-01-20T02:06:01.064Z,0.2
2023-01-20T02:09:00.921Z,0.2
2023-01-20T02:12:00.964Z,0.2
2023-01-20T02:15:01.233Z,0.2
2023-01-20T02:18:01.007Z,0.2
2023-01-20T02:21:00.945Z,0.2
2023-01-20T02:24:01.010Z,0.2
2023-01-20T02:27:00.932Z,0.2
2023-01-20T02:30:01.185Z,0.2
2023-01-20T02:33:00.906Z,0.2
2023-01-20T02:36:00.970Z,0.2
2023-01-20T02:39:00.956Z,0.2
2023-01-20T02:42:01.014Z,0.2
2023-01-20T02:45:01.011Z,0.2
2023-01-20T02:48:01.058Z,0.2
2023-01-20T02:51:01.051Z,0.2
2023-01-20T02:54:00.980Z,0.2
2023-01-20T02:57:00.942Z,0.2
2023-01-20T03:00:00.986Z,0.2
2023-01-20T03:03:00.918Z,0.2
2023-01-20T03:06:01.120Z,0.2
2023-01-20T03:09:00.960Z,0.2
2023-01-20T03:12:01.019Z,0.2
2023-01-20T03:15:01.537Z,0.2
2023-01-20T03:18:00.947Z,0.2
2023-01-20T03:21:00.997Z,0.2
2023-01-20T03:24:00.974Z,0.2
2023-01-20T03:27:00.927Z,0.2
2023-01-20T03:30:00.953Z,0.2
2023-01-20T03:33:00.928Z,0.2
2023-01-20T03:36:00.975Z,0.2
2023-01-20T03:39:00.961Z,0.2
2023-01-20T03:42:00.955Z,0.2
2023-01-20T03:45:00.991Z,0.2
2023-01-20T03:48:00.945Z,0.2
2023-01-20T03:51:00.965Z,0.1
2023-01-20T03:54:01.033Z,0.1
2023-01-20T03:57:00.967Z,0.1
2023-01-20T04:00:01.027Z,0.1
2023-01-20T04:03:01.209Z,0.1
2023-01-20T04:06:00.914Z,0.1
2023-01-20T04:09:00.984Z,0.1
2023-01-20T04:12:00.963Z,0.1
2023-01-20T04:15:00.976Z,0.1
2023-01-20T04:18:00.923Z,0.1
2023-01-20T04:21:00.962Z,0.1
2023-01-20T04:24:00.938Z,0.1
2023-01-20T04:27:01.022Z,0.1
2023-01-20T04:30:01.006Z,0.1
2023-01-20T04:33:00.993Z,0.1
2023-01-20T04:36:01.033Z,0.1
2023-01-20T04:39:00.961Z,0.1
2023-01-20T04:42:00.929Z,0
2023-01-20T04:45:00.917Z,0
2023-01-20T04:48:00.944Z,0
2023-01-20T04:51:00.931Z,0
2023-01-20T04:54:00.949Z,0
2023-01-20T04:57:00.986Z,0
2023-01-20T05:00:01.238Z,0
2023-01-20T05:03:00.974Z,0
2023-01-20T05:06:00.974Z,0
2023-01-20T05:09:00.999Z,0
2023-01-20T05:12:00.974Z,0
2023-01-20T05:15:00.934Z,0
2023-01-20T05:18:00.964Z,0
2023-01-20T05:21:00.924Z,0
2023-01-20T05:24:00.977Z,-0.1
2023-01-20T05:27:01.204Z,-0.1
2023-01-20T05:30:00.972Z,-0.1
2023-01-20T05:33:00.939Z,-0.1
2023-01-20T05:36:00.938Z,-0.1
2023-01-20T05:39:00.947Z,-0.1
2023-01-20T05:42:00.936Z,-0.1
2023-01-20T05:45:00.898Z,-0.1
2023-01-20T05:48:00.948Z,-0.1
2023-01-20T05:51:00.948Z,-0.1
2023-01-20T05:54:00.996Z,-0.2
2023-01-20T05:57:01.010Z,-0.2
2023-01-20T06:00:01.077Z,-0.2
2023-01-20T06:03:01.064Z,-0.2
2023-01-20T06:06:00.992Z,-0.2
2023-01-20T06:09:00.982Z,-0.2
2023-01-20T06:12:00.892Z,-0.2
2023-01-20T06:15:00.962Z,-0.4
2023-01-20T06:18:00.988Z,-0.4
2023-01-20T06:21:00.948Z,-0.4
2023-01-20T06:24:00.930Z,-0.4
2023-01-20T06:27:00.892Z,-0.4
2023-01-20T06:30:00.968Z,-0.6
2023-01-20T06:33:00.915Z,-0.6
2023-01-20T06:36:00.953Z,-0.6
2023-01-20T06:39:00.926Z,-0.6
2023-01-20T06:42:00.920Z,-0.6
2023-01-20T06:45:00.912Z,-0.6
2023-01-20T06:48:00.963Z,-0.6
2023-01-20T06:51:00.940Z,-0.6
2023-01-20T06:54:00.982Z,-0.6
2023-01-20T06:57:00.928Z,-0.6
2023-01-20T07:00:00.952Z,-0.6
2023-01-20T07:03:00.927Z,-0.6
2023-01-20T07:06:00.937Z,-0.9
2023-01-20T07:09:00.974Z,-0.9
2023-01-20T07:12:00.988Z,-0.9
2023-01-20T07:15:01.013Z,-0.9
2023-01-20T07:18:01.000Z,-0.9
2023-01-20T07:21:01.052Z,-0.9
2023-01-20T07:24:01.049Z,-0.9
2023-01-20T07:27:00.988Z,-0.9
2023-01-20T07:30:01.114Z,-0.9
2023-01-20T07:33:01.108Z,-0.9
2023-01-20T07:36:00.957Z,-0.9
2023-01-20T07:39:01.019Z,-0.8
2023-01-20T07:42:00.968Z,-0.8
2023-01-20T07:45:01.124Z,-0.8
2023-01-20T07:48:00.934Z,-0.8
2023-01-20T07:51:01.012Z,-0.8
2023-01-20T07:54:00.979Z,-0.8
2023-01-20T07:57:00.999Z,-0.8
2023-01-20T08:00:01.172Z,-0.8
2023-01-20T08:03:01.009Z,-0.7
2023-01-20T08:06:01.042Z,-0.7
2023-01-20T08:09:01.068Z,-0.7
2023-01-20T08:12:00.980Z,-0.7
2023-01-20T08:15:01.040Z,-0.7
2023-01-20T08:18:01.093Z,-0.6
2023-01-20T08:21:01.106Z,-0.6
2023-01-20T08:24:00.965Z,-0.6
2023-01-20T08:27:00.963Z,-0.6
2023-01-20T08:30:01.059Z,-0.6
2023-01-20T08:33:01.003Z,-0.6
2023-01-20T08:36:00.960Z,-0.6
2023-01-20T08:39:01.165Z,-0.6
2023-01-20T08:42:00.996Z,-0.6
2023-01-20T08:45:01.057Z,-0.6
2023-01-20T08:48:01.068Z,-0.6
2023-01-20T08:51:01.058Z,-0.6
2023-01-20T08:54:01.064Z,-0.6
2023-01-20T08:57:01.019Z,-0.6
2023-01-20T09:00:01.118Z,-0.6
2023-01-20T09:03:00.966Z,-0.6
2023-01-20T09:06:01.014Z,-0.6
2023-01-20T09:09:04.472Z,-0.6
2023-01-20T09:12:01.061Z,-0.6
2023-01-20T09:15:04.914Z,-0.6
2023-01-20T09:18:01.058Z,-0.6
2023-01-20T09:21:01.078Z,-0.6
2023-01-20T09:24:01.130Z,-0.6
2023-01-20T09:27:01.054Z,-0.5
2023-01-20T09:30:01.154Z,-0.5
2023-01-20T09:33:00.968Z,-0.5
2023-01-20T09:36:00.991Z,-0.5
2023-01-20T09:39:01.130Z,-0.5
2023-01-20T09:42:01.018Z,-0.5
2023-01-20T09:45:01.013Z,-0.5
2023-01-20T09:48:01.027Z,-0.3
2023-01-20T09:51:00.989Z,-0.3
2023-01-20T09:54:01.012Z,-0.3
2023-01-20T09:57:01.067Z,-0.3
2023-01-20T10:00:01.102Z,-0.3
2023-01-20T10:03:00.990Z,-0.3
2023-01-20T10:06:00.990Z,-0.3
2023-01-20T10:09:06.844Z,-0.3
2023-01-20T10:12:00.999Z,-0.1
2023-01-20T10:15:01.048Z,-0.1
2023-01-20T10:18:00.982Z,-0.1
2023-01-20T10:21:00.962Z,-0.1
2023-01-20T10:24:00.970Z,-0.1
2023-01-20T10:27:00.993Z,0.1
2023-01-20T10:30:01.168Z,0.1
2023-01-20T10:33:01.059Z,0.1
2023-01-20T10:36:00.981Z,0.1
2023-01-20T10:39:01.033Z,0.1
2023-01-20T10:42:00.975Z,0.1
2023-01-20T10:45:01.047Z,0.1
2023-01-20T10:48:01.012Z,0.4
2023-01-20T10:51:01.092Z,0.4
2023-01-20T10:54:01.023Z,0.4
2023-01-20T10:57:01.171Z,0.4
2023-01-20T11:00:01.298Z,0.4
2023-01-20T11:03:01.312Z,0.4
2023-01-20T11:06:00.984Z,0.4
2023-01-20T11:09:00.960Z,0.4
2023-01-20T11:12:01.012Z,0.7
2023-01-20T11:15:00.978Z,0.7
2023-01-20T11:18:00.978Z,0.7
2023-01-20T11:21:01.056Z,0.7
2023-01-20T11:24:00.992Z,0.7
2023-01-20T11:27:01.076Z,0.7
2023-01-20T11:30:01.102Z,0.7
2023-01-20T11:33:01.082Z,0.7
2023-01-20T11:36:01.210Z,0.9
2023-01-20T11:39:01.032Z,0.9
2023-01-20T11:42:01.205Z,0.9
2023-01-20T11:45:21.448Z,0.9
2023-01-20T11:48:01.021Z,0.9
2023-01-20T11:51:01.116Z,0.9
2023-01-20T11:54:00.973Z,0.9
2023-01-20T11:57:00.973Z,0.9
2023-01-20T12:00:01.218Z,0.9
2023-01-20T12:03:01.026Z,0.9
2023-01-20T12:06:01.230Z,0.9
2023-01-20T12:09:01.182Z,0.9
2023-01-20T12:12:01.083Z,1.4
2023-01-20T12:15:01.136Z,1.4
2023-01-20T12:18:01.063Z,1.4
2023-01-20T12:21:01.029Z,1.4
2023-01-20T12:24:03.413Z,1.4
2023-01-20T12:27:01.070Z,1.6
2023-01-20T12:30:01.431Z,1.6
2023-01-20T12:33:01.022Z,1.6
2023-01-20T12:36:03.065Z,1.6
2023-01-20T12:39:01.073Z,1.8
2023-01-20T12:42:03.168Z,1.8
2023-01-20T12:45:01.101Z,1.8
2023-01-20T12:48:01.023Z,1.8
2023-01-20T12:51:01.048Z,1.8
2023-01-20T12:54:01.055Z,1.8
2023-01-20T12:57:01.475Z,1.8
2023-01-20T13:00:01.427Z,1.8
2023-01-20T13:03:01.011Z,1.8
2023-01-20T13:06:01.082Z,1.8
2023-01-20T13:09:01.095Z,1.8
2023-01-20T13:12:01.096Z,1.8
2023-01-20T13:15:01.522Z,2.3
2023-01-20T13:18:01.099Z,2.3
2023-01-20T13:21:01.048Z,2.3
2023-01-20T13:24:01.050Z,2.3
2023-01-20T13:27:01.157Z,2.3
2023-01-20T13:30:01.244Z,2.3
2023-01-20T13:33:01.073Z,2.3
2023-01-20T13:36:00.996Z,2.3
2023-01-20T13:39:01.138Z,2.3
2023-01-20T13:42:01.084Z,2.3
2023-01-20T13:45:01.152Z,2.5
2023-01-20T13:48:01.173Z,2.5
2023-01-20T13:51:01.171Z,2.5
2023-01-20T13:54:01.255Z,2.5
2023-01-20T13:57:01.032Z,2.5
2023-01-20T14:00:01.537Z,2.5
2023-01-20T14:03:01.138Z,2.6
2023-01-20T14:06:01.152Z,2.6
2023-01-20T14:09:01.034Z,2.6
2023-01-20T14:12:01.059Z,2.6
2023-01-20T14:15:01.267Z,2.6
2023-01-20T14:18:01.159Z,2.6
2023-01-20T14:21:04.032Z,2.6
2023-01-20T14:24:01.136Z,2.6
2023-01-20T14:27:01.041Z,2.6
2023-01-20T14:30:01.392Z,2.6
2023-01-20T14:33:00.997Z,2.6
2023-01-20T14:36:01.069Z,2.6
2023-01-20T14:39:04.209Z,2.6
2023-01-20T14:42:01.183Z,2.6
2023-01-20T14:45:01.033Z,2.6
2023-01-20T14:48:01.056Z,2.6
2023-01-20T14:51:01.059Z,2.5
2023-01-20T14:57:01.326Z,2.5
2023-01-20T15:00:01.427Z,2.5
2023-01-20T15:03:11.805Z,2.5
2023-01-20T15:06:01.399Z,2.4
2023-01-20T15:09:07.621Z,2.4
2023-01-20T15:12:01.475Z,2.4
2023-01-20T15:15:01.366Z,2.4
2023-01-20T15:18:01.380Z,2.4
2023-01-20T15:21:17.439Z,2.3
2023-01-20T15:24:01.312Z,2.3
2023-01-20T15:27:01.406Z,2.3
2023-01-20T15:30:01.401Z,2.3
2023-01-20T15:33:01.418Z,2.2
2023-01-20T15:36:01.435Z,2.2
2023-01-20T15:39:01.356Z,2.2
2023-01-20T15:42:01.301Z,2.1
2023-01-20T15:45:01.548Z,2.1
2023-01-20T15:48:01.277Z,2.1
2023-01-20T15:51:01.445Z,2.1
2023-01-20T15:54:01.355Z,2.1
2023-01-20T15:57:01.308Z,2.1
2023-01-20T16:00:01.409Z,2.1
2023-01-20T16:03:01.295Z,2.1
2023-01-20T16:06:01.316Z,2.1
2023-01-20T16:09:01.238Z,2
2023-01-20T16:12:01.249Z,2
2023-01-20T16:15:01.197Z,2
2023-01-20T16:18:01.255Z,2
2023-01-20T16:21:01.313Z,2
2023-01-20T16:24:01.250Z,2
2023-01-20T16:27:01.287Z,2
2023-01-20T16:30:01.402Z,2
2023-01-20T16:33:32.729Z,2
2023-01-20T16:36:01.232Z,2
2023-01-20T16:39:01.311Z,2
2023-01-20T16:42:01.248Z,2
2023-01-20T16:45:01.272Z,2
2023-01-20T16:48:01.311Z,2
2023-01-20T16:51:01.365Z,2
2023-01-20T16:54:01.391Z,2
2023-01-20T16:57:01.336Z,2
2023-01-20T17:00:01.358Z,1.9
2023-01-20T17:03:01.218Z,1.9
2023-01-20T17:06:01.406Z,1.9
2023-01-20T17:09:01.290Z,1.9
2023-01-20T17:12:01.319Z,1.9
2023-01-20T17:15:01.277Z,1.9
2023-01-20T17:18:01.409Z,1.9
2023-01-20T17:21:01.254Z,1.9
2023-01-20T17:24:01.293Z,1.9
2023-01-20T17:27:01.243Z,1.9
2023-01-20T17:30:01.362Z,1.6
2023-01-20T17:33:01.260Z,1.6
2023-01-20T17:36:01.387Z,1.6
2023-01-20T17:39:01.325Z,1.6
2023-01-20T17:42:01.366Z,1.6
2023-01-20T17:45:01.326Z,1.6
2023-01-20T17:48:04.573Z,1.6
2023-01-20T17:51:01.346Z,1.6
2023-01-20T17:54:04.240Z,1.6
2023-01-20T17:57:01.206Z,1.6
2023-01-20T18:00:01.296Z,1.3
2023-01-20T18:03:01.316Z,1.3
2023-01-20T18:06:01.291Z,1.3
2023-01-20T18:09:01.301Z,1.3
2023-01-20T18:12:01.356Z,1.3
2023-01-20T18:15:01.219Z,1.2
2023-01-20T18:18:01.331Z,1.2
2023-01-20T18:21:01.291Z,1.2
2023-01-20T18:24:01.341Z,1.2
2023-01-20T18:27:01.284Z,1.2
2023-01-20T18:30:01.282Z,1.1
2023-01-20T18:33:01.265Z,1.1
2023-01-20T18:36:01.239Z,1.1
2023-01-20T18:39:01.252Z,1.1
2023-01-20T18:42:01.257Z,1.1
2023-01-20T18:45:01.328Z,1.1
2023-01-20T18:48:01.264Z,1
2023-01-20T18:51:01.323Z,1
2023-01-20T18:54:01.155Z,1
2023-01-20T18:57:01.289Z,1
2023-01-20T19:00:01.199Z,1
2023-01-20T19:03:01.301Z,1
2023-01-20T19:06:01.270Z,1
2023-01-20T19:09:01.336Z,1
2023-01-20T19:12:01.285Z,1
2023-01-20T19:15:01.282Z,1
2023-01-20T19:18:01.350Z,1
2023-01-20T19:21:01.263Z,1
2023-01-20T19:24:01.759Z,1
2023-01-20T19:27:01.332Z,1
2023-01-20T19:30:01.280Z,1
2023-01-20T19:33:01.307Z,1
2023-01-20T19:36:01.261Z,1
2023-01-20T19:39:01.454Z,0.8
2023-01-20T19:42:01.288Z,0.8
2023-01-20T19:45:01.321Z,0.8
2023-01-20T19:48:01.294Z,0.8
2023-01-20T19:51:01.354Z,0.8
2023-01-20T19:54:01.358Z,0.8
2023-01-20T19:57:01.305Z,0.8
2023-01-20T20:00:01.333Z,0.8
2023-01-20T20:03:01.370Z,0.4
2023-01-20T20:06:01.307Z,0.4
2023-01-20T20:09:01.317Z,0.4
2023-01-20T20:12:01.318Z,0.4
2023-01-20T20:15:01.243Z,0.4
2023-01-20T20:18:01.339Z,0.4
2023-01-20T20:21:01.283Z,0.4
2023-01-20T20:24:01.593Z,0.2
2023-01-20T20:27:01.295Z,0.2
2023-01-20T20:30:01.238Z,0.2
2023-01-20T20:33:01.205Z,0.2
2023-01-20T20:36:01.296Z,0.2
2023-01-20T20:39:01.316Z,0.2
2023-01-20T20:42:01.310Z,0.2
2023-01-20T20:45:01.892Z,-0.1
2023-01-20T20:48:01.338Z,-0.1
2023-01-20T20:51:01.382Z,-0.1
2023-01-20T20:54:01.415Z,-0.1
2023-01-20T20:57:01.403Z,-0.1
2023-01-20T21:00:01.482Z,-0.4
2023-01-20T21:03:01.380Z,-0.4
2023-01-20T21:06:01.351Z,-0.4
2023-01-20T21:09:01.293Z,-0.4
2023-01-20T21:12:01.241Z,-0.4
2023-01-20T21:15:01.341Z,-0.4
2023-01-20T21:18:01.256Z,-0.4
2023-01-20T21:21:01.282Z,-0.4
2023-01-20T21:24:01.230Z,-0.4
2023-01-20T21:27:01.248Z,-0.7
2023-01-20T21:30:01.342Z,-0.7
2023-01-20T21:33:01.293Z,-0.7
2023-01-20T21:36:01.263Z,-0.7
2023-01-20T21:39:01.331Z,-0.7
2023-01-20T21:42:01.237Z,-0.7
2023-01-20T21:45:01.629Z,-0.7
2023-01-20T21:48:01.242Z,-1
2023-01-20T21:51:01.360Z,-1
2023-01-20T21:54:01.315Z,-1
2023-01-20T21:57:01.274Z,-1
2023-01-20T22:00:01.361Z,-1
2023-01-20T22:03:01.356Z,-1
2023-01-20T22:06:01.285Z,-1.2
2023-01-20T22:09:01.194Z,-1.2
2023-01-20T22:12:01.234Z,-1.2
2023-01-20T22:15:01.252Z,-1.2
2023-01-20T22:18:01.286Z,-1.2
2023-01-20T22:21:01.281Z,-1.2
2023-01-20T22:24:01.296Z,-1.2
2023-01-20T22:27:01.248Z,-1.4
2023-01-20T22:30:01.316Z,-1.4
2023-01-20T22:33:01.266Z,-1.4
2023-01-20T22:36:01.349Z,-1.4
2023-01-20T22:39:01.276Z,-1.4
2023-01-20T22:42:01.333Z,-1.4
2023-01-20T22:45:01.275Z,-1.7
2023-01-20T22:48:01.380Z,-1.7
2023-01-20T22:51:01.338Z,-1.7
2023-01-20T22:54:01.343Z,-1.7
2023-01-20T22:57:01.189Z,-1.7
2023-01-20T23:00:01.850Z,-1.8
2023-01-20T23:03:01.272Z,-1.8
2023-01-20T23:06:01.297Z,-1.8
2023-01-20T23:09:01.376Z,-1.8
2023-01-20T23:12:01.202Z,-1.8
2023-01-20T23:15:01.240Z,-1.8
2023-01-20T23:18:01.297Z,-1.8
2023-01-20T23:21:01.363Z,-2
2023-01-20T23:24:01.224Z,-2
2023-01-20T23:27:01.207Z,-2
2023-01-20T23:30:01.204Z,-2
2023-01-20T23:33:01.254Z,-2
2023-01-20T23:36:01.352Z,-2
2023-01-20T23:39:01.245Z,-2
2023-01-20T23:42:01.402Z,-2.2
2023-01-20T23:45:01.248Z,-2.2
2023-01-20T23:48:01.311Z,-2.2
2023-01-20T23:51:01.320Z,-2.3
2023-01-20T23:54:01.297Z,-2.3
2023-01-20T23:57:01.254Z,-2.3
